Aeroporto :
LOGIN :

Iscrizione | Disclaimer

   EN    FR    IT 

 










Sommario :    VFR   VFR Marginale   IFR   IFR Intensivo   IFR Molto Intensivo
Visibilità : 
Base nubi : 
>= 8 km
>= 3000ft
5 / 8 km
1000 / 3000 ft
1500m / 5 km
500 / 1000 ft
800 / 1500m
200 / 500 ft
< 800m
< 200 ft
Simboli :   Temporali  Nebbia  Neve Forte  Precipitazioni Forti  Vento > 20 kt
SIGMETs :   Varie  Temporali  Ghiacco  Turbolenza  Onda orograficha  Ceneri Vulcaniche






- Altitudine del aeroporto : 19 ft
- Codice IATA : LCY


EGLC - London City

ULTIMO METAR :
  • 220550Z AUTO 21009KT 9999 NCD 13/10 Q1006

METARs OBSOLETI :
  • 220520Z AUTO 20008KT 160V240 9999 FEW020 13/10 Q1006
  • 220450Z AUTO 21009KT 190V250 9999 SCT020 13/10 Q1006
  • 220420Z AUTO 21009KT 190V250 9999 SCT022 13/10 Q1006
  • 220350Z AUTO 21007KT 9999 SCT018 13/10 Q1005
  • 220320Z AUTO 21007KT 170V240 9999 NCD 13/10 Q1005

TAF TAF EGLC
Valido dal 22 a 06 ore il 22 a 15 ore UTC


220458Z 2206/2215 22010KT 9999 FEW025
PROB30
TEMPO 2210/2215 4000 +SHRA BKN014
ATIS : +44 20 7646 0224



MetMap, La meteo Aeronautica in un colpo d'occhio ! - Copyright ORBIFLY Dicembre 2007 - Disclaimer

ORBIFLY MET'MAP TEAM :

Programmazione e sviluppo : Alexandra Zaïnal
Concezione : Baudouin d'Aumeries
Aiuto per la programmazione : Marc-Olivier Méhu
Supporto tecnico e logistico : Manuel Goepfert
Aiuto per la traduzione : Arnaldo La Scala

Contatto : metmap@orbifly.com




FONTI E CREDITI :

   NOAA